sensor_id;sensor_type;location;lat;lon;timestamp;pressure;altitude;pressure_sealevel;temperature;humidity
22283;BME280;11310;51.528;21.204;2023-04-12T00:00:31;99223.75;;;7.93;100.00
22283;BME280;11310;51.528;21.204;2023-04-12T00:03:04;99226.44;;;7.92;100.00
22283;BME280;11310;51.528;21.204;2023-04-12T00:05:36;99228.00;;;7.96;100.00
22283;BME280;11310;51.528;21.204;2023-04-12T00:08:04;99238.06;;;8.03;100.00
22283;BME280;11310;51.528;21.204;2023-04-12T00:10:37;99228.97;;;8.12;100.00
22283;BME280;11310;51.528;21.204;2023-04-12T00:13:05;99230.34;;;8.19;100.00
22283;BME280;11310;51.528;21.204;2023-04-12T00:15:34;99238.69;;;8.27;100.00
22283;BME280;11310;51.528;21.204;2023-04-12T00:18:03;99228.06;;;8.30;100.00
22283;BME280;11310;51.528;21.204;2023-04-12T00:20:31;99231.16;;;8.38;100.00
22283;BME280;11310;51.528;21.204;2023-04-12T00:23:01;99226.53;;;8.43;100.00
22283;BME280;11310;51.528;21.204;2023-04-12T00:25:30;99222.84;;;8.47;100.00
22283;BME280;11310;51.528;21.204;2023-04-12T00:27:59;99212.19;;;8.51;100.00
22283;BME280;11310;51.528;21.204;2023-04-12T00:30:28;99213.72;;;8.55;100.00
22283;BME280;11310;51.528;21.204;2023-04-12T00:32:57;99210.84;;;8.60;100.00
22283;BME280;11310;51.528;21.204;2023-04-12T00:35:25;99214.06;;;8.65;100.00
22283;BME280;11310;51.528;21.204;2023-04-12T00:37:54;99217.47;;;8.67;100.00
22283;BME280;11310;51.528;21.204;2023-04-12T00:40:24;99213.13;;;8.66;100.00
22283;BME280;11310;51.528;21.204;2023-04-12T00:42:52;99206.31;;;8.63;100.00
22283;BME280;11310;51.528;21.204;2023-04-12T00:45:21;99210.84;;;8.60;100.00
22283;BME280;11310;51.528;21.204;2023-04-12T00:47:49;99211.09;;;8.55;100.00
22283;BME280;11310;51.528;21.204;2023-04-12T00:50:19;99209.63;;;8.50;100.00
22283;BME280;11310;51.528;21.204;2023-04-12T00:52:51;99209.25;;;8.40;100.00
22283;BME280;11310;51.528;21.204;2023-04-12T00:55:22;99208.69;;;8.34;100.00
22283;BME280;11310;51.528;21.204;2023-04-12T00:57:53;99217.53;;;8.31;100.00
22283;BME280;11310;51.528;21.204;2023-04-12T01:00:21;99212.56;;;8.27;100.00
22283;BME280;11310;51.528;21.204;2023-04-12T01:02:50;99209.25;;;8.23;100.00
22283;BME280;11310;51.528;21.204;2023-04-12T01:05:21;99213.69;;;8.21;100.00
22283;BME280;11310;51.528;21.204;2023-04-12T01:08:02;99212.13;;;8.17;100.00
22283;BME280;11310;51.528;21.204;2023-04-12T01:10:42;99208.06;;;8.12;100.00
22283;BME280;11310;51.528;21.204;2023-04-12T01:13:23;99207.41;;;8.07;100.00
22283;BME280;11310;51.528;21.204;2023-04-12T01:16:05;99213.56;;;8.06;100.00
22283;BME280;11310;51.528;21.204;2023-04-12T01:18:36;99215.25;;;8.07;100.00
22283;BME280;11310;51.528;21.204;2023-04-12T01:21:14;99225.63;;;8.08;100.00
22283;BME280;11310;51.528;21.204;2023-04-12T01:23:52;99223.00;;;8.08;100.00
22283;BME280;11310;51.528;21.204;2023-04-12T01:26:33;99224.88;;;8.06;100.00
22283;BME280;11310;51.528;21.204;2023-04-12T01:29:08;99224.94;;;8.05;100.00
22283;BME280;11310;51.528;21.204;2023-04-12T01:31:39;99220.66;;;8.04;100.00
22283;BME280;11310;51.528;21.204;2023-04-12T01:34:11;99215.41;;;8.04;100.00
22283;BME280;11310;51.528;21.204;2023-04-12T01:36:43;99212.81;;;8.04;100.00
22283;BME280;11310;51.528;21.204;2023-04-12T01:39:13;99210.34;;;8.01;100.00
22283;BME280;11310;51.528;21.204;2023-04-12T01:41:41;99209.41;;;8.02;100.00
22283;BME280;11310;51.528;21.204;2023-04-12T01:44:14;99206.03;;;8.00;100.00
22283;BME280;11310;51.528;21.204;2023-04-12T01:46:43;99207.84;;;7.98;100.00
22283;BME280;11310;51.528;21.204;2023-04-12T01:49:13;99203.72;;;7.94;100.00
22283;BME280;11310;51.528;21.204;2023-04-12T01:51:49;99202.00;;;7.93;100.00
22283;BME280;11310;51.528;21.204;2023-04-12T01:54:22;99199.50;;;7.91;100.00
22283;BME280;11310;51.528;21.204;2023-04-12T01:56:53;99203.72;;;7.94;100.00
22283;BME280;11310;51.528;21.204;2023-04-12T01:59:30;99219.47;;;7.92;100.00
22283;BME280;11310;51.528;21.204;2023-04-12T02:01:59;99224.63;;;7.94;100.00
22283;BME280;11310;51.528;21.204;2023-04-12T02:04:32;99208.03;;;7.95;100.00
22283;BME280;11310;51.528;21.204;2023-04-12T02:07:02;99214.00;;;7.97;100.00
22283;BME280;11310;51.528;21.204;2023-04-12T02:09:35;99208.78;;;7.97;100.00
22283;BME280;11310;51.528;21.204;2023-04-12T02:12:04;99221.72;;;8.00;100.00
22283;BME280;11310;51.528;21.204;2023-04-12T02:14:36;99219.94;;;8.00;100.00
22283;BME280;11310;51.528;21.204;2023-04-12T02:17:04;99212.94;;;8.01;100.00
22283;BME280;11310;51.528;21.204;2023-04-12T02:19:36;99214.63;;;8.02;100.00
22283;BME280;11310;51.528;21.204;2023-04-12T02:22:04;99226.69;;;8.04;100.00
22283;BME280;11310;51.528;21.204;2023-04-12T02:24:34;99227.53;;;8.05;100.00
22283;BME280;11310;51.528;21.204;2023-04-12T02:27:03;99227.53;;;8.05;100.00
22283;BME280;11310;51.528;21.204;2023-04-12T02:29:33;99228.31;;;8.07;100.00
22283;BME280;11310;51.528;21.204;2023-04-12T02:32:03;99230.03;;;8.08;100.00
22283;BME280;11310;51.528;21.204;2023-04-12T02:34:32;99227.41;;;8.08;100.00
22283;BME280;11310;51.528;21.204;2023-04-12T02:37:14;99235.25;;;8.08;100.00
22283;BME280;11310;51.528;21.204;2023-04-12T02:39:44;99237.00;;;8.07;100.00
22283;BME280;11310;51.528;21.204;2023-04-12T02:42:13;99233.53;;;8.07;100.00
22283;BME280;11310;51.528;21.204;2023-04-12T02:44:42;99239.69;;;8.06;100.00
22283;BME280;11310;51.528;21.204;2023-04-12T02:47:15;99238.94;;;8.04;100.00
22283;BME280;11310;51.528;21.204;2023-04-12T02:49:48;99233.00;;;8.00;100.00
22283;BME280;11310;51.528;21.204;2023-04-12T02:52:18;99226.25;;;7.96;100.00
22283;BME280;11310;51.528;21.204;2023-04-12T02:54:59;99228.91;;;7.95;100.00
22283;BME280;11310;51.528;21.204;2023-04-12T02:57:29;99230.66;;;7.94;100.00
22283;BME280;11310;51.528;21.204;2023-04-12T02:59:58;99223.84;;;7.92;100.00
22283;BME280;11310;51.528;21.204;2023-04-12T03:02:39;99229.13;;;7.90;100.00
22283;BME280;11310;51.528;21.204;2023-04-12T03:05:14;99228.28;;;7.90;100.00
22283;BME280;11310;51.528;21.204;2023-04-12T03:07:44;99219.59;;;7.89;100.00
22283;BME280;11310;51.528;21.204;2023-04-12T03:10:15;99223.97;;;7.89;100.00
22283;BME280;11310;51.528;21.204;2023-04-12T03:12:50;99221.34;;;7.89;100.00
22283;BME280;11310;51.528;21.204;2023-04-12T03:15:19;99220.59;;;7.87;100.00
22283;BME280;11310;51.528;21.204;2023-04-12T03:17:53;99227.56;;;7.86;100.00
22283;BME280;11310;51.528;21.204;2023-04-12T03:20:27;99229.28;;;7.87;100.00
22283;BME280;11310;51.528;21.204;2023-04-12T03:23:06;99231.97;;;7.86;100.00
22283;BME280;11310;51.528;21.204;2023-04-12T03:25:38;99241.41;;;7.88;100.00
22283;BME280;11310;51.528;21.204;2023-04-12T03:28:37;99234.34;;;7.90;100.00
22283;BME280;11310;51.528;21.204;2023-04-12T03:31:06;99235.13;;;7.92;100.00
22283;BME280;11310;51.528;21.204;2023-04-12T03:33:42;99233.22;;;7.96;100.00
22283;BME280;11310;51.528;21.204;2023-04-12T03:36:21;99236.59;;;7.98;100.00
22283;BME280;11310;51.528;21.204;2023-04-12T03:38:59;99240.00;;;8.00;100.00
22283;BME280;11310;51.528;21.204;2023-04-12T03:41:31;99245.97;;;8.02;100.00
22283;BME280;11310;51.528;21.204;2023-04-12T03:44:03;99245.13;;;8.01;100.00
22283;BME280;11310;51.528;21.204;2023-04-12T03:46:35;99242.59;;;8.00;100.00
22283;BME280;11310;51.528;21.204;2023-04-12T03:49:10;99241.81;;;7.98;100.00
22283;BME280;11310;51.528;21.204;2023-04-12T03:51:41;99247.25;;;7.93;100.00
22283;BME280;11310;51.528;21.204;2023-04-12T03:54:11;99255.25;;;7.90;100.00
22283;BME280;11310;51.528;21.204;2023-04-12T03:56:55;99250.09;;;7.89;100.00
22283;BME280;11310;51.528;21.204;2023-04-12T03:59:44;99243.34;;;7.85;100.00
22283;BME280;11310;51.528;21.204;2023-04-12T04:02:15;99247.41;;;7.90;100.00
22283;BME280;11310;51.528;21.204;2023-04-12T04:04:50;99243.78;;;7.93;100.00
22283;BME280;11310;51.528;21.204;2023-04-12T04:07:25;99249.88;;;7.93;100.00
22283;BME280;11310;51.528;21.204;2023-04-12T04:09:55;99250.75;;;7.94;100.00
22283;BME280;11310;51.528;21.204;2023-04-12T04:12:29;99247.34;;;7.92;100.00
22283;BME280;11310;51.528;21.204;2023-04-12T04:14:58;99252.56;;;7.92;100.00
22283;BME280;11310;51.528;21.204;2023-04-12T04:17:31;99261.19;;;7.94;100.00
22283;BME280;11310;51.528;21.204;2023-04-12T04:20:01;99255.03;;;7.95;100.00
22283;BME280;11310;51.528;21.204;2023-04-12T04:22:34;99263.69;;;7.95;100.00
22283;BME280;11310;51.528;21.204;2023-04-12T04:25:04;99267.16;;;7.96;100.00
22283;BME280;11310;51.528;21.204;2023-04-12T04:27:38;99267.09;;;7.97;100.00
22283;BME280;11310;51.528;21.204;2023-04-12T04:30:08;99275.69;;;7.99;100.00
22283;BME280;11310;51.528;21.204;2023-04-12T04:32:42;99269.63;;;7.99;100.00
22283;BME280;11310;51.528;21.204;2023-04-12T04:35:15;99267.91;;;7.98;100.00
22283;BME280;11310;51.528;21.204;2023-04-12T04:37:57;99265.41;;;7.96;100.00
22283;BME280;11310;51.528;21.204;2023-04-12T04:40:27;99269.63;;;7.99;100.00
22283;BME280;11310;51.528;21.204;2023-04-12T04:42:56;99267.91;;;7.98;100.00
22283;BME280;11310;51.528;21.204;2023-04-12T04:45:32;99265.41;;;7.96;100.00
22283;BME280;11310;51.528;21.204;2023-04-12T04:48:03;99271.53;;;7.95;100.00
22283;BME280;11310;51.528;21.204;2023-04-12T04:50:33;99264.56;;;7.96;100.00
22283;BME280;11310;51.528;21.204;2023-04-12T04:53:03;99266.31;;;7.95;100.00
22283;BME280;11310;51.528;21.204;2023-04-12T04:55:33;99285.31;;;7.99;100.00
22283;BME280;11310;51.528;21.204;2023-04-12T04:58:03;99280.78;;;8.02;100.00
22283;BME280;11310;51.528;21.204;2023-04-12T05:00:33;99279.84;;;8.03;100.00
22283;BME280;11310;51.528;21.204;2023-04-12T05:03:02;99275.56;;;8.02;100.00
22283;BME280;11310;51.528;21.204;2023-04-12T05:05:34;99277.09;;;8.06;100.00
22283;BME280;11310;51.528;21.204;2023-04-12T05:08:09;99270.75;;;8.12;100.00
22283;BME280;11310;51.528;21.204;2023-04-12T05:10:38;99274.81;;;8.17;100.00
22283;BME280;11310;51.528;21.204;2023-04-12T05:13:07;99271.19;;;8.20;100.00
22283;BME280;11310;51.528;21.204;2023-04-12T05:15:39;99274.41;;;8.26;100.00
22283;BME280;11310;51.528;21.204;2023-04-12T05:18:08;99272.34;;;8.33;100.00
22283;BME280;11310;51.528;21.204;2023-04-12T05:20:39;99267.72;;;8.38;100.00
22283;BME280;11310;51.528;21.204;2023-04-12T05:23:08;99274.34;;;8.45;100.00
22283;BME280;11310;51.528;21.204;2023-04-12T05:25:43;99267.22;;;8.48;100.00
22283;BME280;11310;51.528;21.204;2023-04-12T05:28:14;99270.28;;;8.56;100.00
22283;BME280;11310;51.528;21.204;2023-04-12T05:30:44;99267.59;;;8.58;100.00
22283;BME280;11310;51.528;21.204;2023-04-12T05:33:18;99272.59;;;8.62;100.00
22283;BME280;11310;51.528;21.204;2023-04-12T05:35:49;99270.66;;;8.66;100.00
22283;BME280;11310;51.528;21.204;2023-04-12T05:38:18;99269.75;;;8.67;100.00
22283;BME280;11310;51.528;21.204;2023-04-12T05:40:52;99269.59;;;8.70;100.00
22283;BME280;11310;51.528;21.204;2023-04-12T05:43:23;99270.25;;;8.73;100.00
22283;BME280;11310;51.528;21.204;2023-04-12T05:45:51;99264.97;;;8.75;100.00
22283;BME280;11310;51.528;21.204;2023-04-12T05:48:22;99265.81;;;8.75;100.00
22283;BME280;11310;51.528;21.204;2023-04-12T05:50:55;99265.56;;;8.80;100.00
22283;BME280;11310;51.528;21.204;2023-04-12T05:53:24;99267.91;;;8.86;100.00
22283;BME280;11310;51.528;21.204;2023-04-12T05:55:59;99265.88;;;8.91;100.00
22283;BME280;11310;51.528;21.204;2023-04-12T05:58:29;99266.81;;;8.90;100.00
22283;BME280;11310;51.528;21.204;2023-04-12T06:00:58;99272.81;;;8.92;100.00
22283;BME280;11310;51.528;21.204;2023-04-12T06:03:27;99276.09;;;8.95;100.00
22283;BME280;11310;51.528;21.204;2023-04-12T06:06:09;99285.41;;;9.01;100.00
22283;BME280;11310;51.528;21.204;2023-04-12T06:08:39;99279.50;;;8.97;100.00
22283;BME280;11310;51.528;21.204;2023-04-12T06:11:08;99279.31;;;9.00;100.00
22283;BME280;11310;51.528;21.204;2023-04-12T06:13:40;99275.63;;;9.04;100.00
22283;BME280;11310;51.528;21.204;2023-04-12T06:16:10;99277.00;;;9.11;100.00
22283;BME280;11310;51.528;21.204;2023-04-12T06:18:40;99277.84;;;9.12;100.00
22283;BME280;11310;51.528;21.204;2023-04-12T06:21:11;99276.84;;;9.14;100.00
22283;BME280;11310;51.528;21.204;2023-04-12T06:23:41;99279.56;;;9.13;100.00
22283;BME280;11310;51.528;21.204;2023-04-12T06:26:11;99270.44;;;9.20;100.00
22283;BME280;11310;51.528;21.204;2023-04-12T06:28:40;99266.91;;;9.21;100.00
22283;BME280;11310;51.528;21.204;2023-04-12T06:31:11;99268.63;;;9.22;100.00
22283;BME280;11310;51.528;21.204;2023-04-12T06:33:41;99271.75;;;9.28;100.00
22283;BME280;11310;51.528;21.204;2023-04-12T06:36:13;99274.03;;;9.34;100.00
22283;BME280;11310;51.528;21.204;2023-04-12T06:38:42;99279.94;;;9.38;100.00
22283;BME280;11310;51.528;21.204;2023-04-12T06:41:12;99285.03;;;9.41;100.00
22283;BME280;11310;51.528;21.204;2023-04-12T06:43:41;99294.31;;;9.46;100.00
22283;BME280;11310;51.528;21.204;2023-04-12T06:46:10;99295.09;;;9.48;100.00
22283;BME280;11310;51.528;21.204;2023-04-12T06:48:41;99298.19;;;9.39;100.00
22283;BME280;11310;51.528;21.204;2023-04-12T06:51:10;99303.06;;;9.30;100.00
22283;BME280;11310;51.528;21.204;2023-04-12T06:53:41;99296.28;;;9.26;100.00
22283;BME280;11310;51.528;21.204;2023-04-12T06:56:12;99294.78;;;9.22;100.00
22283;BME280;11310;51.528;21.204;2023-04-12T06:58:44;99293.78;;;9.24;100.00
22283;BME280;11310;51.528;21.204;2023-04-12T07:01:14;99300.44;;;9.30;100.00
22283;BME280;11310;51.528;21.204;2023-04-12T07:03:44;99301.97;;;9.34;100.00
22283;BME280;11310;51.528;21.204;2023-04-12T07:06:14;99293.28;;;9.33;100.00
22283;BME280;11310;51.528;21.204;2023-04-12T07:08:53;99298.53;;;9.33;100.00
22283;BME280;11310;51.528;21.204;2023-04-12T07:11:22;99306.28;;;9.35;100.00
22283;BME280;11310;51.528;21.204;2023-04-12T07:13:52;99312.78;;;9.28;100.00
22283;BME280;11310;51.528;21.204;2023-04-12T07:16:21;99320.94;;;9.22;100.00
22283;BME280;11310;51.528;21.204;2023-04-12T07:18:52;99322.78;;;9.20;100.00
22283;BME280;11310;51.528;21.204;2023-04-12T07:21:21;99332.25;;;9.22;100.00
22283;BME280;11310;51.528;21.204;2023-04-12T07:23:50;99321.78;;;9.22;100.00
22283;BME280;11310;51.528;21.204;2023-04-12T07:26:21;99316.53;;;9.22;100.00
22283;BME280;11310;51.528;21.204;2023-04-12T07:28:51;99308.69;;;9.22;100.00
22283;BME280;11310;51.528;21.204;2023-04-12T07:31:21;99319.69;;;9.29;100.00
22283;BME280;11310;51.528;21.204;2023-04-12T07:33:53;99314.91;;;9.37;100.00
22283;BME280;11310;51.528;21.204;2023-04-12T07:36:23;99318.13;;;9.42;100.00
22283;BME280;11310;51.528;21.204;2023-04-12T07:38:53;99321.34;;;9.47;100.00
22283;BME280;11310;51.528;21.204;2023-04-12T07:41:24;99317.88;;;9.46;100.00
22283;BME280;11310;51.528;21.204;2023-04-12T07:43:54;99318.13;;;9.42;100.00
22283;BME280;11310;51.528;21.204;2023-04-12T07:46:23;99319.13;;;9.39;100.00
22283;BME280;11310;51.528;21.204;2023-04-12T07:48:52;99320.28;;;9.34;100.00
22283;BME280;11310;51.528;21.204;2023-04-12T07:51:23;99311.63;;;9.33;100.00
22283;BME280;11310;51.528;21.204;2023-04-12T07:53:53;99312.63;;;9.31;100.00
22283;BME280;11310;51.528;21.204;2023-04-12T07:56:25;99304.13;;;9.26;100.00
22283;BME280;11310;51.528;21.204;2023-04-12T07:58:53;99304.25;;;9.24;100.00
22283;BME280;11310;51.528;21.204;2023-04-12T08:01:23;99304.06;;;9.27;100.00
22283;BME280;11310;51.528;21.204;2023-04-12T08:03:52;99305.66;;;9.30;100.00
22283;BME280;11310;51.528;21.204;2023-04-12T08:06:21;99296.91;;;9.31;100.00
22283;BME280;11310;51.528;21.204;2023-04-12T08:08:52;99302.56;;;9.39;100.00
22283;BME280;11310;51.528;21.204;2023-04-12T08:11:22;99301.41;;;9.44;100.00
22283;BME280;11310;51.528;21.204;2023-04-12T08:13:52;99302.28;;;9.45;100.00
22283;BME280;11310;51.528;21.204;2023-04-12T08:16:22;99302.09;;;9.48;100.00
22283;BME280;11310;51.528;21.204;2023-04-12T08:18:51;99302.88;;;9.50;100.00
22283;BME280;11310;51.528;21.204;2023-04-12T08:21:20;99298.38;;;9.52;100.00
22283;BME280;11310;51.528;21.204;2023-04-12T08:23:49;99301.44;;;9.60;100.00
22283;BME280;11310;51.528;21.204;2023-04-12T08:26:19;99305.50;;;9.65;100.00
22283;BME280;11310;51.528;21.204;2023-04-12T08:28:48;99317.34;;;9.72;100.00
22283;BME280;11310;51.528;21.204;2023-04-12T08:31:18;99306.09;;;9.70;100.00
22283;BME280;11310;51.528;21.204;2023-04-12T08:33:48;99298.94;;;9.74;100.00
22283;BME280;11310;51.528;21.204;2023-04-12T08:36:17;99295.88;;;9.81;100.00
22283;BME280;11310;51.528;21.204;2023-04-12T08:38:46;99298.94;;;9.89;100.00
22283;BME280;11310;51.528;21.204;2023-04-12T08:41:19;99300.13;;;9.99;100.00
22283;BME280;11310;51.528;21.204;2023-04-12T08:43:48;99303.59;;;10.00;100.00
22283;BME280;11310;51.528;21.204;2023-04-12T08:46:20;99307.13;;;9.99;100.00
22283;BME280;11310;51.528;21.204;2023-04-12T08:48:52;99303.47;;;10.01;100.00
22283;BME280;11310;51.528;21.204;2023-04-12T08:51:23;99313.97;;;10.01;100.00
22283;BME280;11310;51.528;21.204;2023-04-12T08:53:53;99312.13;;;10.03;100.00
22283;BME280;11310;51.528;21.204;2023-04-12T08:56:25;99314.50;;;10.08;100.00
22283;BME280;11310;51.528;21.204;2023-04-12T08:58:55;99311.81;;;10.09;100.00
22283;BME280;11310;51.528;21.204;2023-04-12T09:01:26;99314.34;;;10.11;100.00
22283;BME280;11310;51.528;21.204;2023-04-12T09:03:55;99318.66;;;10.12;100.00
22283;BME280;11310;51.528;21.204;2023-04-12T09:06:24;99315.78;;;10.16;100.00
22283;BME280;11310;51.528;21.204;2023-04-12T09:08:54;99310.19;;;10.22;100.00
22283;BME280;11310;51.528;21.204;2023-04-12T09:11:24;99313.16;;;10.32;100.00
22283;BME280;11310;51.528;21.204;2023-04-12T09:13:55;99304.50;;;10.45;100.00
22283;BME280;11310;51.528;21.204;2023-04-12T09:16:37;99298.91;;;10.51;100.00
22283;BME280;11310;51.528;21.204;2023-04-12T09:19:07;99300.22;;;10.74;100.00
22283;BME280;11310;51.528;21.204;2023-04-12T09:21:51;99305.34;;;10.91;100.00
22283;BME280;11310;51.528;21.204;2023-04-12T09:24:20;99298.13;;;10.94;100.00
22283;BME280;11310;51.528;21.204;2023-04-12T09:27:00;99300.28;;;11.02;100.00
22283;BME280;11310;51.528;21.204;2023-04-12T09:29:30;99297.28;;;11.08;100.00
22283;BME280;11310;51.528;21.204;2023-04-12T09:32:03;99301.78;;;11.06;100.00
22283;BME280;11310;51.528;21.204;2023-04-12T09:34:34;99300.28;;;11.02;100.00
22283;BME280;11310;51.528;21.204;2023-04-12T09:37:11;99300.94;;;11.05;100.00
22283;BME280;11310;51.528;21.204;2023-04-12T09:39:42;99301.78;;;11.06;100.00
22283;BME280;11310;51.528;21.204;2023-04-12T09:42:12;99296.72;;;11.03;100.00
22283;BME280;11310;51.528;21.204;2023-04-12T09:45:17;99291.22;;;11.07;100.00
22283;BME280;11310;51.528;21.204;2023-04-12T09:47:48;99291.13;;;11.23;100.00
22283;BME280;11310;51.528;21.204;2023-04-12T09:50:21;99299.59;;;11.42;100.00
22283;BME280;11310;51.528;21.204;2023-04-12T09:52:52;99291.41;;;11.46;100.00
22283;BME280;11310;51.528;21.204;2023-04-12T09:55:24;99288.44;;;11.52;100.00
22283;BME280;11310;51.528;21.204;2023-04-12T09:57:54;99287.59;;;11.66;100.00
22283;BME280;11310;51.528;21.204;2023-04-12T10:00:25;99281.00;;;11.87;100.00
22283;BME280;11310;51.528;21.204;2023-04-12T10:02:55;99292.16;;;11.91;100.00
22283;BME280;11310;51.528;21.204;2023-04-12T10:05:24;99293.78;;;11.79;100.00
22283;BME280;11310;51.528;21.204;2023-04-12T10:07:57;99290.38;;;11.77;100.00
22283;BME280;11310;51.528;21.204;2023-04-12T10:10:30;99286.84;;;11.78;100.00
22283;BME280;11310;51.528;21.204;2023-04-12T10:12:59;99293.78;;;11.79;100.00
22283;BME280;11310;51.528;21.204;2023-04-12T10:15:29;99283.81;;;11.84;100.00
22283;BME280;11310;51.528;21.204;2023-04-12T10:18:06;99284.06;;;11.93;100.00
22283;BME280;11310;51.528;21.204;2023-04-12T10:20:39;99287.47;;;11.96;100.00
22283;BME280;11310;51.528;21.204;2023-04-12T10:23:11;99289.81;;;11.86;100.00
22283;BME280;11310;51.528;21.204;2023-04-12T10:25:40;99290.59;;;11.74;100.00
22283;BME280;11310;51.528;21.204;2023-04-12T10:28:15;99279.97;;;11.61;100.00
22283;BME280;11310;51.528;21.204;2023-04-12T10:30:48;99288.88;;;11.59;100.00
22283;BME280;11310;51.528;21.204;2023-04-12T10:33:25;99289.44;;;11.50;100.00
22283;BME280;11310;51.528;21.204;2023-04-12T10:35:56;99292.19;;;11.48;100.00
22283;BME280;11310;51.528;21.204;2023-04-12T10:38:28;99290.03;;;11.55;100.00
22283;BME280;11310;51.528;21.204;2023-04-12T10:41:18;99287.97;;;11.74;100.00
22283;BME280;11310;51.528;21.204;2023-04-12T10:43:48;99286.25;;;11.87;100.00
22283;BME280;11310;51.528;21.204;2023-04-12T10:46:47;99283.94;;;12.09;100.00
22283;BME280;11310;51.528;21.204;2023-04-12T10:49:18;99275.63;;;12.29;100.00
22283;BME280;11310;51.528;21.204;2023-04-12T10:52:12;99283.31;;;12.32;99.74
22283;BME280;11310;51.528;21.204;2023-04-12T10:54:42;99285.38;;;12.27;99.97
22283;BME280;11310;51.528;21.204;2023-04-12T10:57:41;99280.97;;;12.28;100.00
22283;BME280;11310;51.528;21.204;2023-04-12T11:00:12;99276.59;;;12.28;100.00
22283;BME280;11310;51.528;21.204;2023-04-12T11:03:05;99281.06;;;12.26;99.93
22283;BME280;11310;51.528;21.204;2023-04-12T11:05:58;99275.56;;;12.43;98.61
22283;BME280;11310;51.528;21.204;2023-04-12T11:09:06;99284.47;;;12.67;98.04
22283;BME280;11310;51.528;21.204;2023-04-12T11:11:45;99273.75;;;12.70;97.82
22283;BME280;11310;51.528;21.204;2023-04-12T11:14:15;99281.84;;;12.67;96.67
22283;BME280;11310;51.528;21.204;2023-04-12T11:17:22;99279.31;;;12.66;96.84
22283;BME280;11310;51.528;21.204;2023-04-12T11:19:54;99275.03;;;12.77;96.83
22283;BME280;11310;51.528;21.204;2023-04-12T11:22:27;99266.59;;;12.72;96.75
22283;BME280;11310;51.528;21.204;2023-04-12T11:24:58;99275.97;;;12.76;97.01
22283;BME280;11310;51.528;21.204;2023-04-12T11:27:28;99273.44;;;12.87;97.44
22283;BME280;11310;51.528;21.204;2023-04-12T11:29:59;99271.09;;;13.09;96.61
22283;BME280;11310;51.528;21.204;2023-04-12T11:32:31;99264.03;;;13.22;94.15
22283;BME280;11310;51.528;21.204;2023-04-12T11:35:01;99261.22;;;13.25;94.49
22283;BME280;11310;51.528;21.204;2023-04-12T11:37:36;99258.47;;;13.27;93.77
22283;BME280;11310;51.528;21.204;2023-04-12T11:40:07;99256.75;;;13.26;90.33
22283;BME280;11310;51.528;21.204;2023-04-12T11:42:38;99261.84;;;13.16;93.65
22283;BME280;11310;51.528;21.204;2023-04-12T11:45:08;99258.88;;;13.21;94.65
22283;BME280;11310;51.528;21.204;2023-04-12T11:47:44;99260.03;;;13.54;93.27
22283;BME280;11310;51.528;21.204;2023-04-12T11:50:27;99253.44;;;14.21;91.88
22283;BME280;11310;51.528;21.204;2023-04-12T11:53:10;99247.50;;;14.64;88.48
22283;BME280;11310;51.528;21.204;2023-04-12T11:55:40;99245.81;;;14.52;88.66
22283;BME280;11310;51.528;21.204;2023-04-12T11:58:09;99245.81;;;14.52;88.51
22283;BME280;11310;51.528;21.204;2023-04-12T12:00:40;99246.50;;;14.54;88.39
22283;BME280;11310;51.528;21.204;2023-04-12T12:03:09;99241.81;;;14.81;88.16
22283;BME280;11310;51.528;21.204;2023-04-12T12:05:40;99238.56;;;15.34;86.20
22283;BME280;11310;51.528;21.204;2023-04-12T12:08:11;99227.69;;;16.03;83.31
22283;BME280;11310;51.528;21.204;2023-04-12T12:10:41;99235.97;;;16.52;81.37
22283;BME280;11310;51.528;21.204;2023-04-12T12:13:42;99240.06;;;16.97;77.37
22283;BME280;11310;51.528;21.204;2023-04-12T12:16:11;99243.50;;;17.09;73.51
22283;BME280;11310;51.528;21.204;2023-04-12T12:18:41;99240.81;;;16.47;80.56
22283;BME280;11310;51.528;21.204;2023-04-12T12:21:11;99241.78;;;15.82;83.19
22283;BME280;11310;51.528;21.204;2023-04-12T12:23:44;99234.72;;;15.38;84.54
22283;BME280;11310;51.528;21.204;2023-04-12T12:26:19;99234.88;;;15.02;85.82
22283;BME280;11310;51.528;21.204;2023-04-12T12:28:49;99225.19;;;15.25;86.58
22283;BME280;11310;51.528;21.204;2023-04-12T12:31:20;99220.16;;;15.77;83.54
22283;BME280;11310;51.528;21.204;2023-04-12T12:33:53;99215.66;;;16.42;81.95
22283;BME280;11310;51.528;21.204;2023-04-12T12:36:28;99216.44;;;16.33;79.73
22283;BME280;11310;51.528;21.204;2023-04-12T12:39:05;99219.75;;;16.03;82.02
22283;BME280;11310;51.528;21.204;2023-04-12T12:41:38;99214.34;;;16.36;81.92
22283;BME280;11310;51.528;21.204;2023-04-12T12:44:08;99217.44;;;16.52;80.75
22283;BME280;11310;51.528;21.204;2023-04-12T12:46:38;99203.84;;;16.77;79.98
22283;BME280;11310;51.528;21.204;2023-04-12T12:49:22;99203.72;;;16.58;79.36
22283;BME280;11310;51.528;21.204;2023-04-12T12:51:51;99196.47;;;15.86;82.47
22283;BME280;11310;51.528;21.204;2023-04-12T12:54:21;99194.13;;;15.50;83.52
22283;BME280;11310;51.528;21.204;2023-04-12T12:57:07;99200.66;;;15.78;84.36
22283;BME280;11310;51.528;21.204;2023-04-12T12:59:37;99188.78;;;15.61;83.86
22283;BME280;11310;51.528;21.204;2023-04-12T13:02:06;99193.13;;;15.29;84.71
22283;BME280;11310;51.528;21.204;2023-04-12T13:04:35;99186.38;;;14.92;85.87
22283;BME280;11310;51.528;21.204;2023-04-12T13:07:07;99183.94;;;14.67;86.82
22283;BME280;11310;51.528;21.204;2023-04-12T13:09:40;99181.94;;;14.93;86.17
22283;BME280;11310;51.528;21.204;2023-04-12T13:12:09;99180.75;;;15.41;84.63
22283;BME280;11310;51.528;21.204;2023-04-12T13:14:38;99175.00;;;15.69;83.02